Time;durP1;ratioP1;P1;durP2;ratioP2;P2;SDS_P1;SDS_P2;PMS_P1;PMS_P2;Temp;Humidity;BMP_temperature;BMP_pressure;BME280_temperature;BME280_humidity;BME280_pressure;Samples;Min_cycle;Max_cycle;Signal;HPM_P1;HPM_P2
2022/04/30 00:00:11;;;;;;;14.95;6.50;;;9.60;97.70;;;;;;5054920;28;20041;-72
2022/04/30 00:02:36;;;;;;;13.13;6.68;;;9.70;97.80;;;;;;5054718;28;20123;-72
2022/04/30 00:05:02;;;;;;;11.48;6.00;;;9.60;97.70;;;;;;5055109;28;20080;-72
2022/04/30 00:07:28;;;;;;;11.77;6.50;;;9.60;97.80;;;;;;5055816;28;20045;-72
2022/04/30 00:09:53;;;;;;;10.73;6.30;;;9.60;97.70;;;;;;5054829;28;20053;-72
2022/04/30 00:12:21;;;;;;;13.20;6.03;;;9.60;97.80;;;;;;5055662;28;20053;-72
2022/04/30 00:14:47;;;;;;;11.00;6.35;;;9.60;97.80;;;;;;5054453;28;20075;-75
2022/04/30 00:17:13;;;;;;;12.20;6.40;;;9.60;97.80;;;;;;5054889;28;20484;-73
2022/04/30 00:19:39;;;;;;;11.55;6.45;;;9.60;97.80;;;;;;5054631;28;20392;-72
2022/04/30 00:22:05;;;;;;;12.10;5.88;;;9.50;97.80;;;;;;5054553;28;20051;-72
2022/04/30 00:24:31;;;;;;;9.20;5.63;;;9.50;97.90;;;;;;5055179;28;20492;-72
2022/04/30 00:26:59;;;;;;;12.02;6.38;;;9.50;97.90;;;;;;5055548;28;20434;-72
2022/04/30 00:29:27;;;;;;;11.32;5.80;;;9.50;98.00;;;;;;5054205;28;20045;-72
2022/04/30 00:31:54;;;;;;;15.25;6.30;;;9.50;98.00;;;;;;5055286;28;20051;-72
2022/04/30 00:34:20;;;;;;;14.43;6.30;;;9.60;98.00;;;;;;5054070;28;20431;-72
2022/04/30 00:36:46;;;;;;;13.82;6.47;;;9.60;98.00;;;;;;5054695;28;20045;-72
2022/04/30 00:39:11;;;;;;;11.05;6.60;;;9.60;98.00;;;;;;5055185;28;20048;-72
2022/04/30 00:41:45;;;;;;;12.48;5.75;;;9.50;97.90;;;;;;5054031;28;20118;-74
2022/04/30 00:44:11;;;;;;;11.32;5.43;;;9.50;98.00;;;;;;5055624;28;20060;-72
2022/04/30 00:46:37;;;;;;;9.52;6.20;;;9.40;98.00;;;;;;5054100;28;20147;-72
2022/04/30 00:49:03;;;;;;;11.57;6.15;;;9.50;98.10;;;;;;5054774;28;20544;-72
2022/04/30 00:51:29;;;;;;;12.63;6.05;;;9.50;98.00;;;;;;5036836;28;20053;-71
2022/04/30 00:53:56;;;;;;;11.25;5.88;;;9.40;98.00;;;;;;5054938;28;20124;-72
2022/04/30 00:56:51;;;;;;;10.27;5.55;;;9.50;98.00;;;;;;5054855;28;20056;-72
2022/04/30 00:59:17;;;;;;;14.10;6.20;;;9.40;97.90;;;;;;5052116;28;20496;-71
2022/04/30 01:01:45;;;;;;;12.50;6.15;;;9.40;98.00;;;;;;5037600;28;20128;-72
2022/04/30 01:04:11;;;;;;;10.23;5.82;;;9.40;98.10;;;;;;5054652;28;20041;-72
2022/04/30 01:06:57;;;;;;;12.07;5.28;;;9.40;98.00;;;;;;5037135;28;20041;-72
2022/04/30 01:09:32;;;;;;;8.95;5.43;;;9.40;98.10;;;;;;5054646;28;20079;-71
2022/04/30 01:12:06;;;;;;;13.93;6.07;;;9.30;98.00;;;;;;5036918;28;20133;-71
2022/04/30 01:14:32;;;;;;;16.40;5.82;;;9.30;98.00;;;;;;5054571;28;20052;-72
2022/04/30 01:17:05;;;;;;;14.02;6.22;;;9.30;98.10;;;;;;5054496;28;20428;-71
2022/04/30 01:19:33;;;;;;;8.02;5.40;;;9.30;98.00;;;;;;5053978;28;20056;-72
2022/04/30 01:22:01;;;;;;;9.45;5.22;;;9.20;98.00;;;;;;5054513;28;20075;-72
2022/04/30 01:24:29;;;;;;;10.65;5.15;;;9.20;98.00;;;;;;5036773;28;20423;-72
2022/04/30 01:26:56;;;;;;;8.60;5.43;;;9.20;98.00;;;;;;5054410;28;20075;-72
2022/04/30 01:29:23;;;;;;;11.05;5.63;;;9.10;98.00;;;;;;5054284;28;20083;-72
2022/04/30 01:37:35;;;;;;;10.88;5.63;;;9.00;98.00;;;;;;5054083;28;20140;-72
2022/04/30 01:40:03;;;;;;;10.98;5.43;;;8.90;98.10;;;;;;5037388;28;20053;-72
2022/04/30 01:42:35;;;;;;;9.23;5.40;;;8.90;98.10;;;;;;5053951;28;20053;-72
2022/04/30 01:45:04;;;;;;;9.82;5.95;;;8.90;98.10;;;;;;5054218;28;20084;-71
2022/04/30 01:47:33;;;;;;;10.05;5.28;;;8.90;98.20;;;;;;5053211;28;20065;-72
2022/04/30 01:49:59;;;;;;;9.10;5.45;;;9.00;98.10;;;;;;5053748;28;20484;-71
2022/04/30 01:52:25;;;;;;;10.38;5.60;;;8.90;98.10;;;;;;5035879;28;20110;-71
2022/04/30 01:54:51;;;;;;;9.52;5.57;;;8.90;98.10;;;;;;5053764;28;20053;-72
2022/04/30 01:57:23;;;;;;;9.32;5.93;;;8.90;98.10;;;;;;5036049;28;20060;-71
2022/04/30 01:59:55;;;;;;;8.60;5.85;;;8.90;98.10;;;;;;5053908;28;20041;-71
2022/04/30 02:02:26;;;;;;;10.30;5.78;;;8.90;98.10;;;;;;5053823;28;20052;-71
2022/04/30 02:04:54;;;;;;;10.25;5.38;;;8.90;98.10;;;;;;5019667;28;20102;-71
2022/04/30 02:07:22;;;;;;;9.27;5.72;;;8.90;98.10;;;;;;5053650;28;20055;-72
2022/04/30 02:09:51;;;;;;;9.63;5.18;;;8.80;98.00;;;;;;5053644;28;20133;-72
2022/04/30 02:12:17;;;;;;;11.95;5.90;;;8.80;98.10;;;;;;5035674;28;20399;-72
2022/04/30 02:14:48;;;;;;;9.80;5.75;;;8.80;98.10;;;;;;5035881;28;20055;-72
2022/04/30 02:17:15;;;;;;;9.10;5.40;;;8.80;98.10;;;;;;5035772;28;20053;-72
2022/04/30 02:22:30;;;;;;;10.13;5.53;;;8.80;98.10;;;;;;5036147;28;20453;-72
2022/04/30 02:24:57;;;;;;;10.25;5.85;;;8.90;98.20;;;;;;5053495;28;20124;-72
2022/04/30 02:27:24;;;;;;;11.13;5.47;;;8.80;98.10;;;;;;5053460;28;20135;-72
2022/04/30 02:29:49;;;;;;;8.40;5.15;;;8.90;98.10;;;;;;5035494;28;20045;-72
2022/04/30 02:32:16;;;;;;;9.30;5.00;;;8.80;98.00;;;;;;5053283;28;20048;-72
2022/04/30 02:34:42;;;;;;;7.22;4.82;;;8.70;97.90;;;;;;5053319;28;20055;-72
2022/04/30 02:37:13;;;;;;;8.85;4.63;;;8.70;97.90;;;;;;5053423;28;20404;-72
2022/04/30 02:39:38;;;;;;;8.23;5.00;;;8.60;97.90;;;;;;5053386;28;20053;-71
2022/04/30 02:42:04;;;;;;;8.75;5.05;;;8.60;98.00;;;;;;5053280;28;20124;-72
2022/04/30 02:44:30;;;;;;;8.50;5.32;;;8.50;97.90;;;;;;5035701;28;20045;-72
2022/04/30 02:46:56;;;;;;;7.78;4.95;;;8.50;98.00;;;;;;5035503;28;20041;-72
2022/04/30 02:49:22;;;;;;;8.77;5.75;;;8.40;98.10;;;;;;5052774;28;20135;-72
2022/04/30 02:51:49;;;;;;;8.95;5.30;;;8.50;98.30;;;;;;5052778;28;20476;-72
2022/04/30 02:54:15;;;;;;;8.40;5.03;;;8.40;98.30;;;;;;5053606;28;20052;-72
2022/04/30 02:56:42;;;;;;;9.65;5.47;;;8.50;98.30;;;;;;5035693;28;20393;-72
2022/04/30 03:01:53;;;;;;;8.88;5.05;;;8.50;98.20;;;;;;5056372;28;20101;-72
2022/04/30 03:04:18;;;;;;;7.15;4.82;;;8.40;98.20;;;;;;5039272;28;20163;-72
2022/04/30 03:06:46;;;;;;;8.80;5.20;;;8.40;98.20;;;;;;5039296;28;20135;-72
2022/04/30 03:09:12;;;;;;;9.32;5.28;;;8.30;98.30;;;;;;5056961;28;20503;-72
2022/04/30 03:11:38;;;;;;;10.10;5.25;;;8.20;98.30;;;;;;5039128;28;20052;-71
2022/04/30 03:14:03;;;;;;;10.40;4.80;;;8.20;98.50;;;;;;5056778;28;20045;-72
2022/04/30 03:21:59;;;;;;;7.07;4.38;;;8.30;98.40;;;;;;5056694;28;20132;-71
2022/04/30 03:24:27;;;;;;;10.38;5.15;;;8.30;98.50;;;;;;5056580;28;20088;-72
2022/04/30 03:26:52;;;;;;;11.98;5.25;;;8.30;98.40;;;;;;5056591;28;20106;-72
2022/04/30 03:29:19;;;;;;;10.18;5.40;;;8.30;98.40;;;;;;5038643;28;20053;-71
2022/04/30 03:31:45;;;;;;;9.35;5.20;;;8.40;98.50;;;;;;5056315;28;20053;-72
2022/04/30 03:34:14;;;;;;;8.88;4.93;;;8.40;98.40;;;;;;5056620;28;20053;-72
2022/04/30 03:36:39;;;;;;;8.68;4.90;;;8.40;98.40;;;;;;5038504;28;20495;-71
2022/04/30 03:39:06;;;;;;;6.68;4.65;;;8.40;98.50;;;;;;5056328;28;20150;-72
2022/04/30 03:41:32;;;;;;;9.43;4.72;;;8.40;98.40;;;;;;5055917;28;20477;-72
2022/04/30 03:43:58;;;;;;;8.27;5.03;;;8.30;98.40;;;;;;5056199;28;20045;-71
2022/04/30 03:46:24;;;;;;;7.80;5.07;;;8.40;98.40;;;;;;5038477;28;20045;-71
2022/04/30 03:48:53;;;;;;;11.15;5.63;;;8.30;98.40;;;;;;5050694;28;20075;-72
2022/04/30 03:51:25;;;;;;;12.15;5.60;;;8.30;98.50;;;;;;5055027;28;20056;-71
2022/04/30 03:53:54;;;;;;;8.73;5.43;;;8.40;98.50;;;;;;5056148;28;20060;-72
2022/04/30 03:56:21;;;;;;;9.68;5.22;;;8.30;98.60;;;;;;5056096;28;20049;-72
2022/04/30 03:58:48;;;;;;;12.43;5.05;;;8.40;98.60;;;;;;5056003;28;20528;-71
2022/04/30 04:01:18;;;;;;;8.45;5.28;;;8.50;98.60;;;;;;5055039;28;20497;-72
2022/04/30 04:03:44;;;;;;;8.25;5.10;;;8.50;98.50;;;;;;5055923;28;20091;-71
2022/04/30 04:06:10;;;;;;;10.07;5.47;;;8.50;98.40;;;;;;5055793;28;20076;-71
2022/04/30 04:08:36;;;;;;;7.60;5.05;;;8.50;98.40;;;;;;5055878;28;20045;-69
2022/04/30 04:11:02;;;;;;;8.82;5.15;;;8.40;98.40;;;;;;5055972;28;20047;-70
2022/04/30 04:18:56;;;;;;;9.20;5.25;;;8.40;98.50;;;;;;5055215;28;20052;-71
2022/04/30 04:21:23;;;;;;;10.70;5.03;;;8.40;98.50;;;;;;5055269;28;20070;-70
2022/04/30 04:26:33;;;;;;;9.18;4.68;;;8.40;98.50;;;;;;5055479;28;20102;-70
2022/04/30 04:28:59;;;;;;;9.75;5.07;;;8.40;98.50;;;;;;5037909;28;20049;-71
2022/04/30 04:31:25;;;;;;;9.45;5.30;;;8.40;98.50;;;;;;5054197;28;20062;-71
2022/04/30 04:33:51;;;;;;;6.82;4.82;;;8.40;98.60;;;;;;5055358;28;20049;-70
2022/04/30 04:36:17;;;;;;;8.10;5.10;;;8.50;98.60;;;;;;5055287;28;20060;-70
2022/04/30 04:38:43;;;;;;;7.15;4.95;;;8.60;98.50;;;;;;5055282;28;20048;-70
2022/04/30 04:41:09;;;;;;;9.40;4.93;;;8.60;98.50;;;;;;5055214;28;20171;-70
2022/04/30 04:43:34;;;;;;;11.60;5.97;;;8.70;98.60;;;;;;5055112;28;20049;-71
2022/04/30 04:46:02;;;;;;;9.23;5.28;;;8.70;98.70;;;;;;5055046;28;20047;-71
2022/04/30 04:48:32;;;;;;;11.90;5.30;;;8.70;98.80;;;;;;5053378;28;20136;-70
2022/04/30 04:50:58;;;;;;;9.75;5.13;;;8.70;98.90;;;;;;5054881;28;20040;-71
2022/04/30 04:53:23;;;;;;;9.35;5.20;;;8.80;99.00;;;;;;5054962;28;20052;-70
2022/04/30 04:55:49;;;;;;;9.05;5.70;;;8.80;99.00;;;;;;5053976;28;20048;-70
2022/04/30 04:58:15;;;;;;;9.18;4.93;;;8.90;99.30;;;;;;5054807;28;20049;-72
2022/04/30 05:00:41;;;;;;;10.30;5.35;;;8.90;99.20;;;;;;5054836;28;20041;-70
2022/04/30 05:03:07;;;;;;;8.45;5.45;;;9.00;99.20;;;;;;5054789;28;20049;-70
2022/04/30 05:05:33;;;;;;;9.40;5.50;;;9.20;99.30;;;;;;5053894;28;20121;-70
2022/04/30 05:07:59;;;;;;;10.15;5.15;;;9.30;99.20;;;;;;5053752;28;20128;-71
2022/04/30 05:10:25;;;;;;;8.68;5.50;;;9.30;99.30;;;;;;5037067;28;20040;-70
2022/04/30 05:12:51;;;;;;;9.38;5.85;;;9.40;99.40;;;;;;5054561;28;20460;-71
2022/04/30 05:15:16;;;;;;;8.00;5.65;;;9.50;99.40;;;;;;5037184;28;20179;-71
2022/04/30 05:17:42;;;;;;;9.13;5.72;;;9.50;99.50;;;;;;5053019;28;20377;-70
2022/04/30 05:20:08;;;;;;;12.38;7.28;;;9.60;99.60;;;;;;5053488;28;20063;-70
2022/04/30 05:22:34;;;;;;;10.48;6.63;;;9.60;99.70;;;;;;5054471;28;20407;-70
2022/04/30 05:24:59;;;;;;;9.05;6.00;;;9.60;99.80;;;;;;5054423;28;20052;-70
2022/04/30 05:27:25;;;;;;;12.30;6.45;;;9.70;99.80;;;;;;5054329;28;20396;-71
2022/04/30 05:29:51;;;;;;;11.73;6.30;;;9.70;99.90;;;;;;5054041;28;20115;-70
2022/04/30 05:32:17;;;;;;;9.95;6.28;;;9.80;99.90;;;;;;5052898;28;20041;-71
2022/04/30 05:34:42;;;;;;;13.70;7.53;;;9.90;99.90;;;;;;5053285;28;20048;-71
2022/04/30 05:37:08;;;;;;;9.10;6.05;;;10.00;99.90;;;;;;5054430;28;20048;-71
2022/04/30 05:39:34;;;;;;;11.43;6.28;;;10.10;99.90;;;;;;5054436;28;20049;-70
2022/04/30 05:41:59;;;;;;;12.73;6.35;;;10.10;99.90;;;;;;5053064;28;20057;-71
2022/04/30 05:44:25;;;;;;;10.63;6.10;;;10.10;99.90;;;;;;5054477;28;20041;-71
2022/04/30 05:46:51;;;;;;;11.10;6.63;;;10.10;99.90;;;;;;5053326;28;20159;-71
2022/04/30 05:49:16;;;;;;;12.23;7.07;;;10.10;99.90;;;;;;5053913;28;20076;-70
2022/04/30 05:51:42;;;;;;;14.27;7.35;;;10.10;99.90;;;;;;5053762;28;20045;-70
2022/04/30 05:54:08;;;;;;;11.88;7.13;;;10.20;99.90;;;;;;5036225;28;20095;-70
2022/04/30 05:56:34;;;;;;;10.38;6.80;;;10.40;99.90;;;;;;5053809;28;20559;-71
2022/04/30 05:59:00;;;;;;;11.57;6.35;;;10.40;99.90;;;;;;5053808;28;20088;-71
2022/04/30 06:01:26;;;;;;;11.20;5.70;;;10.50;99.90;;;;;;5036097;28;20087;-70
2022/04/30 06:03:52;;;;;;;10.93;5.70;;;10.60;99.90;;;;;;5053680;28;20405;-71
2022/04/30 06:06:21;;;;;;;11.55;6.32;;;10.60;99.90;;;;;;5036139;28;20040;-70
2022/04/30 06:08:47;;;;;;;10.80;6.18;;;10.70;99.90;;;;;;5053633;28;20068;-71
2022/04/30 06:11:13;;;;;;;12.93;6.35;;;10.70;99.90;;;;;;5035756;28;20045;-71
2022/04/30 06:13:39;;;;;;;9.80;6.75;;;10.90;99.90;;;;;;5019558;28;20544;-71
2022/04/30 06:16:05;;;;;;;12.60;5.80;;;10.90;99.90;;;;;;5053584;28;20512;-71
2022/04/30 06:18:31;;;;;;;14.40;7.05;;;11.00;99.90;;;;;;5035625;28;20381;-71
2022/04/30 06:20:56;;;;;;;11.10;6.30;;;11.10;99.90;;;;;;5053530;28;20090;-71
2022/04/30 06:23:22;;;;;;;11.40;6.38;;;11.00;99.90;;;;;;5036026;28;20488;-70
2022/04/30 06:25:48;;;;;;;10.45;6.05;;;10.90;99.90;;;;;;5053434;28;20045;-71
2022/04/30 06:28:14;;;;;;;10.73;5.72;;;11.00;99.90;;;;;;5035752;28;20053;-71
2022/04/30 06:30:41;;;;;;;13.13;6.63;;;11.00;99.90;;;;;;5053410;28;20037;-71
2022/04/30 06:33:08;;;;;;;11.85;6.90;;;11.10;99.90;;;;;;5019205;28;20045;-71
2022/04/30 06:35:35;;;;;;;9.07;5.80;;;11.10;99.90;;;;;;5036723;28;20088;-72
2022/04/30 06:38:01;;;;;;;11.20;6.85;;;11.10;99.90;;;;;;5039958;28;20057;-71
2022/04/30 06:40:27;;;;;;;14.27;6.88;;;11.20;99.90;;;;;;5039540;28;20075;-71
2022/04/30 06:42:52;;;;;;;16.17;7.57;;;11.30;99.90;;;;;;5057415;28;20049;-71
2022/04/30 06:45:18;;;;;;;12.15;7.55;;;11.30;99.90;;;;;;5057837;28;20560;-70
2022/04/30 06:47:44;;;;;;;18.17;8.05;;;11.20;99.90;;;;;;5056745;28;20056;-71
2022/04/30 06:50:10;;;;;;;16.00;8.70;;;11.20;99.90;;;;;;5039713;28;20055;-70
2022/04/30 06:57:07;;;;;;;13.80;8.07;;;11.10;99.90;;;;;;5057220;28;20052;-71
2022/04/30 06:58:06;;;;;;;15.00;8.13;;;10.50;99.90;;;;;;5042187;28;20053;-70
2022/04/30 07:03:19;;;;;;;14.15;8.50;;;11.00;99.90;;;;;;5057153;28;20084;-71
2022/04/30 07:05:46;;;;;;;14.60;7.70;;;11.10;99.90;;;;;;5056989;28;20049;-71
2022/04/30 07:08:11;;;;;;;11.60;7.40;;;10.90;99.90;;;;;;5057117;28;20103;-70
2022/04/30 07:10:37;;;;;;;15.10;7.25;;;11.00;99.90;;;;;;5039176;28;20431;-71
2022/04/30 07:13:03;;;;;;;12.45;7.85;;;11.10;99.90;;;;;;5057156;28;20476;-71
2022/04/30 07:15:28;;;;;;;13.13;7.65;;;11.30;99.90;;;;;;5039324;28;20074;-70
2022/04/30 07:17:54;;;;;;;11.23;6.45;;;11.30;99.90;;;;;;5056354;28;20052;-71
2022/04/30 07:20:20;;;;;;;14.45;7.38;;;11.20;99.90;;;;;;5056702;28;20044;-71
2022/04/30 07:22:45;;;;;;;18.30;7.13;;;11.20;99.90;;;;;;5056721;28;20123;-71
2022/04/30 07:25:11;;;;;;;13.50;7.53;;;11.40;99.90;;;;;;5056645;28;20087;-71
2022/04/30 07:27:37;;;;;;;12.82;6.78;;;11.60;99.90;;;;;;5039022;28;20047;-71
2022/04/30 07:30:03;;;;;;;14.70;7.22;;;11.60;99.90;;;;;;5056611;28;20052;-71
2022/04/30 07:32:29;;;;;;;14.50;7.30;;;11.60;99.90;;;;;;5038644;28;20049;-71
2022/04/30 07:34:54;;;;;;;13.82;7.18;;;11.50;99.90;;;;;;5022331;28;20106;-71
2022/04/30 07:37:20;;;;;;;18.63;7.70;;;11.50;99.90;;;;;;5056666;28;20048;-71
2022/04/30 07:39:46;;;;;;;15.35;6.70;;;11.50;99.60;;;;;;5056164;28;20045;-71
2022/04/30 07:42:11;;;;;;;11.50;6.65;;;11.30;99.80;;;;;;5038610;28;20128;-71
2022/04/30 07:44:37;;;;;;;13.75;6.60;;;11.40;99.90;;;;;;5056269;28;20133;-70
2022/04/30 07:47:03;;;;;;;14.82;7.15;;;11.60;99.70;;;;;;5055849;28;20074;-71
2022/04/30 07:49:30;;;;;;;15.50;6.32;;;11.60;99.40;;;;;;5055912;28;20099;-71
2022/04/30 07:51:56;;;;;;;15.52;6.80;;;11.50;99.60;;;;;;5038317;28;20091;-69
2022/04/30 07:54:23;;;;;;;14.65;7.10;;;11.50;99.50;;;;;;5038479;28;20053;-71
2022/04/30 07:57:00;;;;;;;10.68;6.13;;;11.70;99.60;;;;;;5056086;28;20055;-69
2022/04/30 07:59:27;;;;;;;13.18;6.25;;;11.80;99.60;;;;;;5038515;28;20059;-70
2022/04/30 08:01:53;;;;;;;12.05;5.88;;;12.00;99.50;;;;;;5038276;28;20075;-71
2022/04/30 08:04:20;;;;;;;10.32;5.45;;;12.10;99.30;;;;;;5038372;28;20535;-71
2022/04/30 08:06:45;;;;;;;15.07;6.65;;;12.10;98.80;;;;;;5055810;28;20049;-71
2022/04/30 08:09:11;;;;;;;8.80;5.60;;;12.20;98.50;;;;;;5056066;28;20542;-70
2022/04/30 08:11:37;;;;;;;11.30;5.85;;;12.30;98.50;;;;;;5056019;28;20040;-72
2022/04/30 08:14:03;;;;;;;12.10;5.72;;;12.30;98.50;;;;;;5041653;28;20045;-72
2022/04/30 08:16:29;;;;;;;16.30;6.40;;;12.40;98.70;;;;;;5055690;28;20056;-72
2022/04/30 08:18:56;;;;;;;11.85;5.03;;;12.30;98.10;;;;;;5021258;28;20045;-71
2022/04/30 08:21:22;;;;;;;12.07;6.03;;;12.50;98.60;;;;;;5021739;28;20084;-71
2022/04/30 08:23:48;;;;;;;13.43;6.05;;;12.40;98.10;;;;;;5055505;28;20084;-71
2022/04/30 08:26:14;;;;;;;11.25;6.03;;;12.30;98.60;;;;;;5055133;28;20240;-71
2022/04/30 08:28:39;;;;;;;14.40;5.93;;;12.30;98.60;;;;;;5055457;28;20171;-71
2022/04/30 08:31:05;;;;;;;11.18;6.30;;;12.30;98.70;;;;;;5037515;28;20128;-71
2022/04/30 08:33:31;;;;;;;12.40;6.32;;;12.40;98.70;;;;;;5037867;28;20045;-71
2022/04/30 08:35:56;;;;;;;12.65;7.18;;;12.50;98.90;;;;;;5055387;28;20155;-71
2022/04/30 08:38:22;;;;;;;11.80;6.40;;;12.70;98.90;;;;;;5054975;28;20052;-70
2022/04/30 08:40:48;;;;;;;11.88;5.35;;;12.60;98.80;;;;;;5055217;28;20043;-71
2022/04/30 08:43:15;;;;;;;12.32;5.13;;;12.60;98.80;;;;;;5020930;28;20051;-71
2022/04/30 08:45:44;;;;;;;9.35;4.75;;;12.70;99.10;;;;;;5054740;28;20571;-71
2022/04/30 08:48:11;;;;;;;9.20;4.30;;;12.70;98.90;;;;;;5043737;28;20053;-72
2022/04/30 08:50:39;;;;;;;10.85;4.03;;;12.90;99.00;;;;;;5053888;28;20053;-72
2022/04/30 08:53:05;;;;;;;13.65;6.50;;;13.00;98.70;;;;;;5054066;28;20061;-71
2022/04/30 08:55:31;;;;;;;8.48;5.55;;;12.90;98.50;;;;;;5053762;28;20051;-72
2022/04/30 08:57:57;;;;;;;5.65;3.65;;;13.10;98.70;;;;;;5054258;28;20045;-71
2022/04/30 09:00:22;;;;;;;10.32;4.20;;;12.60;97.90;;;;;;5053760;28;20044;-71
2022/04/30 09:02:52;;;;;;;9.73;4.15;;;12.60;98.20;;;;;;5054512;28;20491;-71
2022/04/30 09:05:18;;;;;;;11.10;4.95;;;12.60;98.20;;;;;;5055093;28;20068;-72
2022/04/30 09:07:58;;;;;;;10.00;5.30;;;12.80;98.30;;;;;;5054850;28;20492;-71
2022/04/30 09:10:29;;;;;;;10.63;6.13;;;13.00;98.80;;;;;;5054606;28;20055;-71
2022/04/30 09:13:07;;;;;;;13.20;6.22;;;13.20;98.90;;;;;;5054698;28;20049;-72
2022/04/30 09:15:34;;;;;;;13.05;5.53;;;13.20;98.30;;;;;;5053831;28;20057;-86
2022/04/30 09:18:02;;;;;;;6.88;3.88;;;13.10;98.20;;;;;;5053578;28;20049;-86
2022/04/30 09:20:30;;;;;;;11.85;4.22;;;12.50;98.30;;;;;;5036768;28;20509;-85
2022/04/30 09:22:56;;;;;;;11.57;4.13;;;12.40;98.00;;;;;;5053573;28;20049;-86
2022/04/30 09:25:23;;;;;;;8.82;4.45;;;12.20;97.90;;;;;;5036913;28;20048;-85
2022/04/30 09:27:54;;;;;;;9.18;4.53;;;12.50;98.20;;;;;;5036877;28;20431;-85
2022/04/30 09:30:29;;;;;;;9.05;4.43;;;12.30;97.50;;;;;;5053527;28;20123;-84
2022/04/30 09:32:58;;;;;;;9.85;4.80;;;12.70;98.10;;;;;;5053327;28;20080;-70
2022/04/30 09:38:09;;;;;;;9.23;4.43;;;12.90;98.10;;;;;;5053346;28;20474;-70
2022/04/30 09:40:35;;;;;;;12.60;4.32;;;13.00;98.20;;;;;;5053615;28;20055;-91
2022/04/30 09:43:01;;;;;;;7.43;4.43;;;13.20;98.10;;;;;;5053382;28;20037;-69
2022/04/30 09:45:32;;;;;;;8.15;4.55;;;13.30;97.90;;;;;;5053798;28;20515;-69
2022/04/30 09:47:59;;;;;;;9.60;4.78;;;13.30;97.80;;;;;;5053312;28;20052;-71
2022/04/30 09:56:07;;;;;;;10.02;5.10;;;13.80;97.80;;;;;;5053834;28;20064;-69
2022/04/30 09:58:38;;;;;;;9.60;5.10;;;13.70;97.80;;;;;;5053902;28;20118;-69
2022/04/30 10:01:05;;;;;;;15.88;5.88;;;13.70;98.00;;;;;;5053903;28;20045;-69
2022/04/30 10:03:33;;;;;;;9.82;5.90;;;13.80;98.10;;;;;;5053771;28;20123;-70
2022/04/30 10:06:04;;;;;;;11.05;5.13;;;13.80;98.20;;;;;;5053721;28;20119;-70
2022/04/30 10:08:35;;;;;;;10.63;5.22;;;13.80;97.50;;;;;;5019928;28;20395;-69
2022/04/30 10:11:23;;;;;;;11.95;5.80;;;13.50;97.70;;;;;;5034987;28;20399;-70
2022/04/30 10:13:49;;;;;;;10.23;5.38;;;13.30;98.00;;;;;;5019726;28;20055;-70
2022/04/30 10:16:24;;;;;;;9.15;5.22;;;13.40;97.80;;;;;;5053864;28;20045;-70
2022/04/30 10:19:11;;;;;;;10.32;5.90;;;13.30;97.80;;;;;;5053213;28;20041;-69
2022/04/30 10:21:38;;;;;;;12.23;5.65;;;13.40;98.00;;;;;;5053225;28;20593;-70
2022/04/30 10:24:06;;;;;;;11.10;5.40;;;13.50;98.00;;;;;;5036147;28;20434;-69
2022/04/30 10:26:32;;;;;;;10.50;5.55;;;13.50;97.90;;;;;;5035982;28;20044;-69
2022/04/30 10:29:12;;;;;;;10.70;4.97;;;13.40;97.60;;;;;;5035615;28;20380;-69
2022/04/30 10:31:46;;;;;;;10.55;5.28;;;13.30;97.80;;;;;;5035584;28;20103;-69
2022/04/30 10:34:12;;;;;;;9.23;5.00;;;13.20;97.60;;;;;;5035567;28;20098;-69
2022/04/30 10:36:39;;;;;;;9.20;5.00;;;13.20;97.80;;;;;;5036000;28;20140;-69
2022/04/30 10:39:09;;;;;;;9.75;5.30;;;13.30;97.70;;;;;;5053169;28;20049;-67
2022/04/30 10:41:43;;;;;;;13.40;5.55;;;13.30;97.80;;;;;;5054128;28;20052;-70
2022/04/30 10:44:09;;;;;;;10.77;5.05;;;13.30;97.70;;;;;;5019530;28;20049;-71
2022/04/30 10:46:36;;;;;;;11.48;5.97;;;13.30;97.70;;;;;;5035683;28;20051;-71
2022/04/30 10:49:05;;;;;;;11.90;6.32;;;13.20;97.60;;;;;;5030938;28;20057;-73
2022/04/30 10:51:41;;;;;;;9.23;4.90;;;13.00;97.50;;;;;;5052851;28;20048;-70
2022/04/30 10:54:18;;;;;;;10.23;5.22;;;12.90;97.70;;;;;;5053077;28;20510;-70
2022/04/30 10:56:45;;;;;;;9.32;4.88;;;13.00;97.70;;;;;;5053326;28;20400;-70
2022/04/30 10:59:21;;;;;;;10.82;5.90;;;13.10;97.60;;;;;;5052052;28;20049;-70
2022/04/30 11:01:51;;;;;;;12.65;5.78;;;13.10;97.60;;;;;;5053257;28;20472;-70
2022/04/30 11:04:17;;;;;;;9.75;4.97;;;13.10;97.70;;;;;;5053004;28;20060;-70
2022/04/30 11:06:44;;;;;;;8.35;4.43;;;13.20;97.60;;;;;;5035862;28;20140;-70
2022/04/30 11:09:10;;;;;;;8.00;4.55;;;12.90;97.50;;;;;;5052061;28;20131;-84
2022/04/30 11:11:37;;;;;;;14.60;4.25;;;12.90;97.70;;;;;;5035035;28;20080;-83
2022/04/30 11:14:08;;;;;;;7.50;4.35;;;12.80;97.50;;;;;;5035548;28;20045;-71
2022/04/30 11:16:41;;;;;;;8.40;5.00;;;12.90;97.40;;;;;;5052787;28;20400;-70
2022/04/30 11:19:10;;;;;;;12.20;4.57;;;13.00;97.40;;;;;;5052631;28;20045;-71
2022/04/30 11:21:44;;;;;;;8.65;4.70;;;12.90;97.20;;;;;;5053699;28;20400;-70
2022/04/30 11:24:11;;;;;;;8.45;3.95;;;12.80;97.20;;;;;;5055581;28;20045;-73
2022/04/30 11:26:41;;;;;;;6.35;4.00;;;12.80;97.00;;;;;;5055657;28;20056;-71
2022/04/30 11:29:14;;;;;;;6.88;3.97;;;13.00;96.90;;;;;;5056670;28;20131;-71
2022/04/30 11:31:42;;;;;;;9.93;4.45;;;13.20;97.10;;;;;;5056458;28;20037;-71
2022/04/30 11:34:13;;;;;;;7.47;4.03;;;13.20;96.70;;;;;;5055703;28;20041;-71
2022/04/30 11:36:44;;;;;;;8.13;4.18;;;13.20;97.00;;;;;;5056429;28;20415;-71
2022/04/30 11:39:11;;;;;;;7.03;4.18;;;13.10;96.90;;;;;;5055522;28;20139;-71
2022/04/30 11:41:44;;;;;;;9.23;4.15;;;13.20;97.10;;;;;;5056446;28;20048;-71
2022/04/30 11:44:11;;;;;;;8.48;4.03;;;13.50;97.20;;;;;;5056082;28;20052;-71
2022/04/30 11:46:39;;;;;;;10.70;4.70;;;13.30;96.80;;;;;;5056386;28;20068;-71
2022/04/30 11:49:17;;;;;;;9.23;3.85;;;13.40;97.20;;;;;;5055961;28;20107;-71
2022/04/30 11:51:43;;;;;;;10.57;4.25;;;13.40;97.10;;;;;;5056663;28;20529;-71
2022/04/30 11:54:17;;;;;;;7.63;4.00;;;13.40;96.90;;;;;;5038509;28;20049;-71
2022/04/30 11:56:44;;;;;;;8.38;4.05;;;13.30;97.00;;;;;;5056191;28;20041;-71
2022/04/30 11:59:11;;;;;;;8.27;4.18;;;13.10;96.70;;;;;;5056192;28;20048;-71
2022/04/30 12:01:42;;;;;;;8.10;3.92;;;13.00;96.70;;;;;;5055947;28;20469;-71
2022/04/30 12:04:14;;;;;;;7.20;4.63;;;13.20;96.70;;;;;;5038479;28;20565;-71
2022/04/30 12:06:44;;;;;;;8.35;3.85;;;13.20;96.60;;;;;;5056097;28;20044;-71
2022/04/30 12:09:18;;;;;;;8.63;4.50;;;13.40;96.50;;;;;;5038403;28;20469;-72
2022/04/30 12:11:49;;;;;;;9.55;4.20;;;13.70;96.90;;;;;;5055884;28;20055;-71
2022/04/30 12:14:16;;;;;;;10.30;4.82;;;13.90;96.60;;;;;;5056349;28;20106;-71
2022/04/30 12:16:43;;;;;;;10.80;4.85;;;13.80;96.40;;;;;;5055770;28;20049;-71
2022/04/30 12:25:15;;;;;;;9.65;4.85;;;13.50;96.20;;;;;;5055731;28;20044;-71
2022/04/30 12:27:51;;;;;;;7.57;4.28;;;13.60;96.30;;;;;;5055554;28;20110;-71
2022/04/30 12:30:17;;;;;;;7.80;4.25;;;13.40;96.40;;;;;;5055241;28;20496;-71
2022/04/30 12:32:50;;;;;;;8.10;4.50;;;13.50;96.30;;;;;;5054548;28;20044;-73
2022/04/30 12:35:27;;;;;;;8.98;4.53;;;13.50;96.40;;;;;;5055112;28;20431;-72
2022/04/30 12:38:05;;;;;;;6.95;4.28;;;13.50;96.40;;;;;;5055628;28;20045;-71
2022/04/30 12:40:31;;;;;;;7.63;4.20;;;13.70;96.20;;;;;;5055220;28;20045;-71
2022/04/30 12:42:57;;;;;;;6.15;3.80;;;13.50;96.20;;;;;;5055313;28;20049;-71
2022/04/30 12:45:23;;;;;;;5.18;3.50;;;13.70;96.20;;;;;;5055158;28;20040;-71
2022/04/30 12:47:49;;;;;;;8.40;3.30;;;13.90;96.00;;;;;;5054471;28;20057;-71
2022/04/30 12:50:15;;;;;;;6.65;3.45;;;13.90;95.60;;;;;;5055318;28;20134;-71
2022/04/30 12:52:41;;;;;;;6.35;3.55;;;13.60;95.60;;;;;;5054949;28;20130;-71
2022/04/30 12:55:06;;;;;;;10.38;3.67;;;13.40;95.30;;;;;;5055003;28;20148;-71
2022/04/30 12:57:32;;;;;;;8.68;3.75;;;13.40;95.20;;;;;;5037368;28;20052;-71
2022/04/30 12:59:58;;;;;;;7.10;3.65;;;13.50;95.20;;;;;;5054901;28;20044;-71
2022/04/30 13:02:23;;;;;;;7.68;3.60;;;13.60;95.30;;;;;;5036891;28;20049;-71
2022/04/30 13:04:51;;;;;;;10.10;3.90;;;13.70;95.20;;;;;;5054843;28;20055;-71
2022/04/30 13:07:20;;;;;;;6.88;3.83;;;13.80;95.40;;;;;;5037103;28;20068;-71
2022/04/30 13:15:14;;;;;;;10.88;4.90;;;14.20;95.50;;;;;;5055015;28;20068;-71
2022/04/30 13:17:40;;;;;;;8.18;4.07;;;14.20;95.40;;;;;;5054594;28;20484;-71
2022/04/30 13:20:06;;;;;;;8.40;3.95;;;14.30;95.60;;;;;;5036389;28;20041;-71
2022/04/30 13:22:32;;;;;;;8.63;4.10;;;14.40;95.30;;;;;;5054510;28;20045;-71
2022/04/30 13:24:58;;;;;;;7.75;4.43;;;14.60;95.30;;;;;;5036789;28;20090;-71
2022/04/30 13:27:24;;;;;;;7.80;4.00;;;14.50;95.10;;;;;;5054691;28;20056;-71
2022/04/30 13:29:51;;;;;;;8.55;4.93;;;14.20;95.40;;;;;;5054358;28;20044;-71
2022/04/30 13:32:16;;;;;;;10.05;5.00;;;14.20;95.50;;;;;;5054167;28;20049;-71
2022/04/30 13:34:42;;;;;;;8.70;4.90;;;14.20;95.60;;;;;;5054262;28;20476;-71
2022/04/30 13:37:09;;;;;;;10.25;4.55;;;14.30;95.90;;;;;;5054236;28;20049;-71